Time;durP1;ratioP1;P1;durP2;ratioP2;P2;SDS_P1;SDS_P2;PMS_P1;PMS_P2;Temp;Humidity;BMP_temperature;BMP_pressure;BME280_temperature;BME280_humidity;BME280_pressure;Samples;Min_cycle;Max_cycle;Signal;HPM_P1;HPM_P2
2021/08/25 00:01:18;;;;;;;0.80;0.70;;;15.10;99.90;;;;;;5018616;28;20251;-75
2021/08/25 00:03:44;;;;;;;0.97;0.87;;;15.10;99.90;;;;;;5022382;28;20199;-75
2021/08/25 00:06:10;;;;;;;0.80;0.70;;;15.10;99.90;;;;;;5032654;28;20168;-75
2021/08/25 00:08:36;;;;;;;0.70;0.50;;;15.10;99.90;;;;;;5017352;28;20434;-75
2021/08/25 00:11:03;;;;;;;0.83;0.80;;;15.00;99.90;;;;;;5014060;28;20423;-75
2021/08/25 00:13:28;;;;;;;0.70;0.50;;;15.00;99.90;;;;;;5015108;28;20423;-75
2021/08/25 00:15:54;;;;;;;0.80;0.63;;;15.00;99.90;;;;;;5021804;28;20757;-75
2021/08/25 00:18:19;;;;;;;3.33;0.80;;;15.00;99.90;;;;;;5021240;28;20201;-75
2021/08/25 00:20:45;;;;;;;0.80;0.60;;;14.90;99.90;;;;;;5014735;28;20176;-75
2021/08/25 00:23:10;;;;;;;1.30;1.03;;;14.90;99.90;;;;;;5029681;28;20168;-75
2021/08/25 00:25:36;;;;;;;1.10;0.93;;;14.90;99.90;;;;;;5021820;28;20247;-75
2021/08/25 00:28:02;;;;;;;0.70;0.50;;;14.80;99.90;;;;;;5016665;28;20348;-75
2021/08/25 00:30:28;;;;;;;0.90;0.77;;;14.80;99.90;;;;;;5022635;28;20177;-75
2021/08/25 00:32:53;;;;;;;0.80;0.60;;;14.80;99.90;;;;;;5014665;28;20446;-75
2021/08/25 00:35:19;;;;;;;1.13;1.03;;;14.70;99.90;;;;;;5026705;28;20176;-75
2021/08/25 00:37:44;;;;;;;1.00;0.73;;;14.70;99.90;;;;;;5019479;28;20211;-75
2021/08/25 00:40:10;;;;;;;1.00;0.90;;;14.70;99.90;;;;;;5032388;28;20179;-75
2021/08/25 00:42:36;;;;;;;0.70;0.50;;;14.70;99.90;;;;;;5025902;28;20176;-75
2021/08/25 00:45:07;;;;;;;0.70;0.50;;;14.70;99.90;;;;;;5027648;28;20761;-75
2021/08/25 00:47:35;;;;;;;0.93;0.83;;;14.70;99.90;;;;;;5014299;28;20196;-75
2021/08/25 00:50:00;;;;;;;0.87;0.80;;;14.60;99.90;;;;;;5021074;28;20513;-75
2021/08/25 00:52:26;;;;;;;0.70;0.60;;;14.60;99.90;;;;;;5020647;28;20871;-75
2021/08/25 00:54:52;;;;;;;2.60;0.80;;;14.60;99.90;;;;;;5018557;28;20263;-76
2021/08/25 00:57:18;;;;;;;1.93;1.20;;;14.60;99.90;;;;;;5030310;28;20203;-75
2021/08/25 00:59:43;;;;;;;0.80;0.70;;;14.50;99.90;;;;;;5014412;28;20522;-76
2021/08/25 01:02:29;;;;;;;0.70;0.60;;;14.50;99.90;;;;;;5014659;28;20165;-76
2021/08/25 01:04:58;;;;;;;0.87;0.70;;;14.60;99.90;;;;;;5031884;28;20551;-75
2021/08/25 01:07:27;;;;;;;0.77;0.70;;;14.60;99.90;;;;;;5031806;28;20445;-76
2021/08/25 01:09:53;;;;;;;0.70;0.60;;;14.60;99.90;;;;;;5019142;28;20956;-75
2021/08/25 01:12:22;;;;;;;0.80;0.60;;;14.50;99.90;;;;;;5016222;28;20423;-76
2021/08/25 01:14:48;;;;;;;0.90;0.63;;;14.60;99.90;;;;;;5033018;28;20487;-75
2021/08/25 01:17:23;;;;;;;0.70;0.50;;;14.60;99.90;;;;;;5030834;28;20535;-74
2021/08/25 01:19:55;;;;;;;0.77;0.57;;;14.60;99.90;;;;;;5016110;28;20838;-74
2021/08/25 01:22:20;;;;;;;0.80;0.63;;;14.60;99.90;;;;;;5013901;28;20433;-74
2021/08/25 01:24:49;;;;;;;1.37;1.27;;;14.60;99.90;;;;;;5027013;28;20487;-73
2021/08/25 01:27:17;;;;;;;1.67;1.17;;;14.60;99.90;;;;;;5028901;28;20206;-74
2021/08/25 01:29:43;;;;;;;1.37;0.90;;;14.50;99.90;;;;;;5032087;28;20462;-73
2021/08/25 01:32:09;;;;;;;1.20;1.00;;;14.50;99.90;;;;;;5032168;28;20454;-74
2021/08/25 01:34:54;;;;;;;0.70;0.57;;;14.50;99.90;;;;;;5029948;28;20433;-74
2021/08/25 01:37:21;;;;;;;0.80;0.60;;;14.50;99.90;;;;;;5027538;28;21030;-75
2021/08/25 01:39:49;;;;;;;0.70;0.50;;;14.50;99.90;;;;;;5021331;28;20453;-74
2021/08/25 01:42:17;;;;;;;1.73;0.97;;;14.50;99.90;;;;;;5032953;28;20475;-74
2021/08/25 01:44:42;;;;;;;0.80;0.80;;;14.50;99.90;;;;;;5032746;28;20422;-74
2021/08/25 01:47:08;;;;;;;1.30;1.20;;;14.50;99.90;;;;;;5019266;28;20426;-74
2021/08/25 01:49:33;;;;;;;0.80;0.60;;;14.40;99.90;;;;;;5032468;28;20182;-74
2021/08/25 01:51:59;;;;;;;0.80;0.60;;;14.40;99.90;;;;;;5019029;28;20172;-74
2021/08/25 01:54:25;;;;;;;0.70;0.60;;;14.40;99.90;;;;;;5031500;28;20183;-75
2021/08/25 01:56:51;;;;;;;3.07;2.00;;;14.30;99.90;;;;;;5016769;28;20232;-74
2021/08/25 01:59:17;;;;;;;1.77;0.90;;;14.30;99.90;;;;;;5018375;28;20489;-76
2021/08/25 02:01:43;;;;;;;2.10;1.90;;;14.30;99.90;;;;;;5023875;28;20168;-75
2021/08/25 02:04:09;;;;;;;2.07;1.47;;;14.30;99.90;;;;;;5023476;28;20569;-75
2021/08/25 02:06:34;;;;;;;1.90;1.80;;;14.20;99.90;;;;;;5030779;28;20176;-74
2021/08/25 02:09:00;;;;;;;0.90;0.80;;;14.20;99.90;;;;;;5032384;28;20724;-75
2021/08/25 02:11:26;;;;;;;0.80;0.60;;;14.20;99.90;;;;;;5029818;28;20182;-74
2021/08/25 02:13:53;;;;;;;1.10;0.67;;;14.20;99.90;;;;;;5013071;28;20251;-75
2021/08/25 02:16:18;;;;;;;0.73;0.60;;;14.10;99.90;;;;;;5021690;28;20437;-75
2021/08/25 02:18:45;;;;;;;1.33;1.23;;;14.20;99.90;;;;;;5011114;28;20439;-75
2021/08/25 02:21:11;;;;;;;0.90;0.60;;;14.10;99.90;;;;;;5012864;28;20200;-75
2021/08/25 02:23:37;;;;;;;1.10;0.67;;;14.10;99.90;;;;;;5012871;28;20801;-75
2021/08/25 02:26:02;;;;;;;0.70;0.50;;;14.10;99.90;;;;;;5027508;28;20176;-74
2021/08/25 02:28:28;;;;;;;0.80;0.60;;;14.00;99.90;;;;;;5025189;28;20851;-75
2021/08/25 02:30:54;;;;;;;0.73;0.50;;;14.00;99.90;;;;;;5018690;28;20179;-75
2021/08/25 02:33:19;;;;;;;0.80;0.70;;;13.90;99.90;;;;;;5031788;28;20251;-75
2021/08/25 02:35:45;;;;;;;0.87;0.87;;;13.90;99.90;;;;;;5018071;28;20230;-75
2021/08/25 02:38:11;;;;;;;1.40;0.83;;;13.80;99.90;;;;;;5028227;28;20617;-75
2021/08/25 02:40:38;;;;;;;2.03;0.70;;;13.80;99.90;;;;;;5013641;28;20221;-75
2021/08/25 02:43:03;;;;;;;0.80;0.60;;;13.70;99.90;;;;;;5011446;28;20422;-75
2021/08/25 02:45:29;;;;;;;0.70;0.50;;;13.70;99.90;;;;;;5012330;28;21004;-75
2021/08/25 02:47:55;;;;;;;0.70;0.50;;;13.70;99.90;;;;;;5013597;28;20207;-75
2021/08/25 02:50:20;;;;;;;0.80;0.70;;;13.70;99.90;;;;;;5012371;28;20176;-75
2021/08/25 02:52:46;;;;;;;1.33;1.23;;;13.60;99.90;;;;;;5012440;28;20216;-75
2021/08/25 02:55:11;;;;;;;0.80;0.70;;;13.60;99.90;;;;;;5012133;28;20262;-75
2021/08/25 02:57:37;;;;;;;0.80;0.67;;;13.60;99.90;;;;;;5012231;28;20203;-75
2021/08/25 03:00:05;;;;;;;1.10;0.97;;;13.50;99.90;;;;;;5019329;28;20262;-75
2021/08/25 03:02:31;;;;;;;0.70;0.60;;;13.50;99.90;;;;;;5018353;28;20173;-75
2021/08/25 03:04:56;;;;;;;0.80;0.70;;;13.50;99.90;;;;;;5019153;28;20427;-75
2021/08/25 03:07:22;;;;;;;0.70;0.50;;;13.50;99.90;;;;;;5012140;28;20204;-75
2021/08/25 03:09:47;;;;;;;1.07;0.80;;;13.50;99.90;;;;;;5012235;28;20246;-76
2021/08/25 03:12:13;;;;;;;0.80;0.60;;;13.40;99.90;;;;;;5012668;28;20246;-75
2021/08/25 03:14:38;;;;;;;0.70;0.50;;;13.40;99.90;;;;;;5025348;28;20230;-75
2021/08/25 03:17:04;;;;;;;2.13;1.03;;;13.40;99.90;;;;;;5012758;28;20215;-75
2021/08/25 03:19:29;;;;;;;0.80;0.70;;;13.40;99.90;;;;;;5012017;28;20183;-75
2021/08/25 03:21:55;;;;;;;1.03;0.83;;;13.40;99.90;;;;;;5012084;28;20554;-75
2021/08/25 03:24:21;;;;;;;1.20;0.90;;;13.40;99.90;;;;;;5012098;28;20241;-76
2021/08/25 03:26:46;;;;;;;0.70;0.50;;;13.30;99.90;;;;;;5019380;28;20183;-75
2021/08/25 03:29:12;;;;;;;2.50;2.30;;;13.20;99.90;;;;;;5019929;28;20712;-75
2021/08/25 03:31:37;;;;;;;0.80;0.70;;;13.20;99.90;;;;;;5028997;28;20187;-76
2021/08/25 03:34:03;;;;;;;0.70;0.50;;;13.20;99.90;;;;;;5033087;28;20171;-75
2021/08/25 03:36:28;;;;;;;0.70;0.50;;;13.20;99.90;;;;;;5033394;28;20679;-75
2021/08/25 03:38:54;;;;;;;1.00;0.60;;;13.10;99.90;;;;;;5035043;28;20191;-75
2021/08/25 03:41:19;;;;;;;0.80;0.80;;;13.10;99.90;;;;;;5017623;28;20183;-76
2021/08/25 03:43:45;;;;;;;1.37;1.27;;;13.10;99.90;;;;;;5020931;28;20182;-75
2021/08/25 03:46:11;;;;;;;0.70;0.60;;;13.00;99.90;;;;;;5033864;28;20210;-74
2021/08/25 03:48:36;;;;;;;0.70;0.50;;;13.10;99.90;;;;;;5035197;28;20196;-75
2021/08/25 03:51:02;;;;;;;0.70;0.60;;;13.00;99.90;;;;;;5035032;28;20430;-75
2021/08/25 03:53:27;;;;;;;1.57;1.17;;;13.00;99.90;;;;;;5029447;28;20260;-75
2021/08/25 03:55:53;;;;;;;0.70;0.60;;;13.00;99.90;;;;;;5015163;28;20191;-75
2021/08/25 03:58:18;;;;;;;0.70;0.60;;;13.00;99.90;;;;;;5028030;28;20696;-75
2021/08/25 04:00:44;;;;;;;0.70;0.50;;;13.00;99.90;;;;;;5035015;28;20258;-75
2021/08/25 04:03:09;;;;;;;0.70;0.50;;;13.00;99.90;;;;;;5026665;28;20800;-75
2021/08/25 04:05:35;;;;;;;0.90;0.77;;;13.00;99.90;;;;;;5015127;28;20596;-75
2021/08/25 04:08:01;;;;;;;1.20;0.83;;;13.00;99.90;;;;;;5015174;28;20204;-76
2021/08/25 04:10:26;;;;;;;0.80;0.70;;;13.00;99.90;;;;;;5015342;28;20207;-76
2021/08/25 04:12:52;;;;;;;0.80;0.60;;;13.00;99.90;;;;;;5022178;28;20678;-74
2021/08/25 04:15:19;;;;;;;0.73;0.57;;;13.00;99.90;;;;;;5016189;28;20199;-75
2021/08/25 04:17:44;;;;;;;0.70;0.50;;;13.00;99.90;;;;;;5021514;28;20223;-74
2021/08/25 04:20:10;;;;;;;2.87;2.67;;;12.90;99.90;;;;;;5019769;28;20419;-74
2021/08/25 04:22:36;;;;;;;1.43;1.13;;;12.90;99.90;;;;;;5018551;28;20676;-74
2021/08/25 04:25:01;;;;;;;2.10;1.00;;;12.90;99.90;;;;;;5022297;28;20414;-74
2021/08/25 04:27:27;;;;;;;1.57;0.70;;;12.80;99.90;;;;;;5034729;28;20302;-74
2021/08/25 04:29:52;;;;;;;0.70;0.50;;;12.90;99.90;;;;;;5032492;28;20251;-75
2021/08/25 04:32:18;;;;;;;0.70;0.53;;;12.90;99.90;;;;;;5018405;28;20275;-75
2021/08/25 04:34:43;;;;;;;1.03;0.93;;;12.80;99.90;;;;;;5014900;28;20231;-75
2021/08/25 04:37:09;;;;;;;0.90;0.90;;;12.90;99.90;;;;;;5014497;28;20221;-74
2021/08/25 04:39:34;;;;;;;0.70;0.50;;;12.90;99.90;;;;;;5022337;28;20539;-74
2021/08/25 04:42:00;;;;;;;1.53;1.33;;;12.90;99.90;;;;;;5015410;28;20653;-74
2021/08/25 04:44:26;;;;;;;0.70;0.60;;;12.80;99.90;;;;;;5014665;28;20510;-74
2021/08/25 04:46:51;;;;;;;0.70;0.50;;;12.80;99.90;;;;;;5014217;28;20176;-75
2021/08/25 04:49:17;;;;;;;1.33;0.90;;;12.80;99.90;;;;;;5018033;28;20180;-75
2021/08/25 04:51:42;;;;;;;0.70;0.50;;;12.80;99.90;;;;;;5014483;28;20206;-75
2021/08/25 04:54:08;;;;;;;0.70;0.50;;;12.70;99.90;;;;;;5014540;28;20179;-75
2021/08/25 04:56:33;;;;;;;0.80;0.57;;;12.80;99.90;;;;;;5014501;28;20219;-75
2021/08/25 04:58:59;;;;;;;0.80;0.70;;;12.80;99.90;;;;;;5014299;28;20196;-75
2021/08/25 05:01:24;;;;;;;0.77;0.57;;;12.70;99.90;;;;;;5024444;28;20321;-75
2021/08/25 05:03:50;;;;;;;0.70;0.50;;;12.80;99.90;;;;;;5033677;28;20164;-75
2021/08/25 05:06:17;;;;;;;0.80;0.70;;;12.70;99.90;;;;;;5013983;28;20168;-76
2021/08/25 05:08:43;;;;;;;0.70;0.60;;;12.80;99.90;;;;;;5032931;28;20192;-75
2021/08/25 05:11:09;;;;;;;1.43;1.33;;;12.80;99.90;;;;;;5024280;28;20441;-75
2021/08/25 05:13:37;;;;;;;0.70;0.53;;;12.80;99.90;;;;;;5028677;28;20237;-76
2021/08/25 05:16:07;;;;;;;0.70;0.50;;;12.90;99.90;;;;;;5030933;28;20421;-75
2021/08/25 05:18:33;;;;;;;0.70;0.60;;;12.90;99.90;;;;;;5023856;28;21062;-75
2021/08/25 05:21:00;;;;;;;0.80;0.60;;;13.00;99.90;;;;;;5015792;28;20428;-75
2021/08/25 05:23:25;;;;;;;0.70;0.50;;;13.00;99.90;;;;;;5024454;28;20534;-74
2021/08/25 05:25:51;;;;;;;0.93;0.93;;;13.00;99.90;;;;;;5020606;28;20554;-74
2021/08/25 05:28:16;;;;;;;0.90;0.80;;;13.10;99.90;;;;;;5033508;28;20192;-74
2021/08/25 05:30:42;;;;;;;0.70;0.60;;;13.10;99.90;;;;;;5033616;28;20877;-75
2021/08/25 05:33:08;;;;;;;1.10;0.70;;;13.20;99.90;;;;;;5030080;28;20178;-74
2021/08/25 05:35:33;;;;;;;0.80;0.70;;;13.20;99.90;;;;;;5033191;28;20165;-74
2021/08/25 05:37:59;;;;;;;1.30;1.07;;;13.30;99.90;;;;;;5022867;28;20208;-74
2021/08/25 05:40:25;;;;;;;0.70;0.50;;;13.40;99.90;;;;;;5013624;28;20160;-75
2021/08/25 05:42:50;;;;;;;0.70;0.50;;;13.50;99.90;;;;;;5013577;28;20222;-75
2021/08/25 05:45:16;;;;;;;0.80;0.80;;;13.70;99.90;;;;;;5013269;28;20294;-75
2021/08/25 05:47:41;;;;;;;0.70;0.50;;;13.90;99.90;;;;;;5027507;28;20675;-74
2021/08/25 05:50:08;;;;;;;8.43;2.70;;;14.10;99.90;;;;;;5027753;28;20179;-74
2021/08/25 05:52:34;;;;;;;0.70;0.60;;;14.30;99.90;;;;;;5033157;28;20619;-74
2021/08/25 05:54:59;;;;;;;1.13;1.03;;;14.60;99.90;;;;;;5032424;28;20429;-73
2021/08/25 05:57:25;;;;;;;1.40;1.30;;;14.80;99.90;;;;;;5018122;28;20295;-72
2021/08/25 05:59:51;;;;;;;2.60;2.50;;;15.10;99.90;;;;;;5012056;28;20165;-74
2021/08/25 06:02:16;;;;;;;0.90;0.60;;;15.30;99.90;;;;;;5022717;28;20183;-74
2021/08/25 06:04:42;;;;;;;1.47;1.37;;;15.60;99.90;;;;;;5032924;28;20406;-74
2021/08/25 06:07:09;;;;;;;1.87;1.77;;;15.90;99.90;;;;;;5031581;28;20237;-78
2021/08/25 06:09:35;;;;;;;2.37;1.20;;;16.20;99.90;;;;;;5033750;28;20175;-77
2021/08/25 06:12:00;;;;;;;0.90;0.73;;;16.60;99.90;;;;;;5037900;28;20433;-76
2021/08/25 06:14:26;;;;;;;0.80;0.60;;;17.00;99.90;;;;;;5033919;28;20425;-75
2021/08/25 06:16:51;;;;;;;2.20;1.93;;;17.40;99.90;;;;;;5032581;28;20206;-75
2021/08/25 06:19:17;;;;;;;1.30;0.80;;;17.70;99.90;;;;;;5032822;28;20171;-74
2021/08/25 06:21:46;;;;;;;1.37;1.17;;;18.00;99.90;;;;;;5032982;28;20171;-74
2021/08/25 06:24:13;;;;;;;0.90;0.70;;;18.30;99.90;;;;;;5032678;28;20632;-75
2021/08/25 06:26:39;;;;;;;0.77;0.53;;;18.50;99.90;;;;;;5021875;28;20435;-75
2021/08/25 06:29:05;;;;;;;1.17;0.97;;;18.70;99.90;;;;;;5017111;28;20474;-77
2021/08/25 06:31:30;;;;;;;1.20;0.90;;;18.90;99.90;;;;;;5021598;28;20431;-77
2021/08/25 06:33:56;;;;;;;1.00;0.90;;;19.10;99.90;;;;;;5016825;28;20855;-77
2021/08/25 06:36:21;;;;;;;0.90;0.73;;;19.30;99.90;;;;;;5031030;28;20217;-76
2021/08/25 06:38:47;;;;;;;3.17;0.80;;;19.60;99.90;;;;;;5032347;28;20192;-75
2021/08/25 06:41:13;;;;;;;3.97;2.50;;;19.80;99.90;;;;;;5028184;28;20172;-75
2021/08/25 06:43:38;;;;;;;1.40;0.90;;;19.90;99.90;;;;;;5018452;28;20176;-78
2021/08/25 06:46:04;;;;;;;1.57;1.47;;;20.10;99.90;;;;;;5037439;28;20241;-77
2021/08/25 06:48:30;;;;;;;0.80;0.70;;;20.30;99.90;;;;;;5032488;28;20199;-78
2021/08/25 06:50:55;;;;;;;1.10;0.73;;;20.50;99.90;;;;;;5018864;28;20180;-78
2021/08/25 06:53:22;;;;;;;0.90;0.70;;;20.50;99.90;;;;;;5017320;28;20419;-78
2021/08/25 06:55:47;;;;;;;1.93;0.73;;;20.50;99.90;;;;;;5012054;28;20192;-75
2021/08/25 06:58:13;;;;;;;0.90;0.63;;;20.60;99.90;;;;;;5013438;28;20462;-76
2021/08/25 07:00:38;;;;;;;1.10;0.97;;;20.80;99.90;;;;;;5032090;28;20241;-76
2021/08/25 07:03:04;;;;;;;0.90;0.70;;;21.00;99.90;;;;;;5030746;28;20214;-76
2021/08/25 07:05:29;;;;;;;1.30;1.13;;;21.00;99.90;;;;;;5031030;28;20166;-76
2021/08/25 07:07:57;;;;;;;0.83;0.70;;;20.70;99.90;;;;;;5012175;28;20200;-76
2021/08/25 07:10:23;;;;;;;1.43;0.70;;;20.50;99.90;;;;;;5030855;28;20171;-78
2021/08/25 07:12:48;;;;;;;2.53;1.20;;;20.30;99.90;;;;;;5022663;28;20430;-77
2021/08/25 07:15:17;;;;;;;1.03;0.93;;;20.40;99.90;;;;;;5031643;28;20425;-76
2021/08/25 07:17:44;;;;;;;0.80;0.70;;;20.70;99.90;;;;;;5013636;28;20238;-76
2021/08/25 07:20:12;;;;;;;0.80;0.50;;;21.10;99.90;;;;;;5012886;28;20832;-78
2021/08/25 07:22:38;;;;;;;1.73;0.80;;;21.60;99.90;;;;;;5016401;28;20423;-78
2021/08/25 07:25:08;;;;;;;1.17;1.07;;;22.00;99.90;;;;;;5025861;28;20895;-77
2021/08/25 07:27:34;;;;;;;7.33;0.80;;;22.50;99.90;;;;;;5027536;28;20532;-77
2021/08/25 07:30:00;;;;;;;1.00;0.67;;;22.90;99.90;;;;;;5031498;28;20505;-77
2021/08/25 07:32:26;;;;;;;1.03;0.93;;;23.50;99.90;;;;;;5020549;28;21006;-77
2021/08/25 07:34:52;;;;;;;1.00;0.90;;;23.90;99.90;;;;;;5011851;28;20545;-75
2021/08/25 07:37:17;;;;;;;1.07;0.80;;;24.30;99.90;;;;;;5025569;28;20199;-75
2021/08/25 07:39:43;;;;;;;1.00;0.67;;;24.70;99.90;;;;;;5013041;28;20524;-75
2021/08/25 07:42:08;;;;;;;0.83;0.60;;;24.90;99.90;;;;;;5012041;28;20169;-76
2021/08/25 07:44:34;;;;;;;1.30;0.97;;;24.80;99.90;;;;;;5015006;28;20520;-76
2021/08/25 07:46:59;;;;;;;1.00;0.70;;;24.60;99.90;;;;;;5022821;28;20180;-79
2021/08/25 07:49:25;;;;;;;0.80;0.50;;;24.50;99.90;;;;;;5036085;28;20700;-78
2021/08/25 07:51:50;;;;;;;1.20;0.87;;;24.50;99.90;;;;;;5027776;28;20184;-78
2021/08/25 07:54:16;;;;;;;1.10;0.80;;;24.60;99.90;;;;;;5032019;28;20183;-79
2021/08/25 07:56:42;;;;;;;1.23;1.13;;;24.40;99.90;;;;;;5014511;28;20204;-78
2021/08/25 07:59:07;;;;;;;0.90;0.70;;;24.40;99.90;;;;;;5020155;28;20211;-76
2021/08/25 08:01:33;;;;;;;2.50;1.33;;;24.40;99.90;;;;;;5030525;28;20199;-76
2021/08/25 08:03:59;;;;;;;2.77;0.90;;;24.30;99.90;;;;;;5030800;28;20270;-76
2021/08/25 08:06:25;;;;;;;1.13;1.03;;;24.20;99.90;;;;;;5027123;28;20671;-76
2021/08/25 08:08:51;;;;;;;0.80;0.60;;;24.20;99.90;;;;;;5029176;28;20422;-76
2021/08/25 08:11:16;;;;;;;0.90;0.70;;;24.10;99.90;;;;;;5031292;28;20908;-76
2021/08/25 08:13:42;;;;;;;0.97;0.87;;;24.00;99.90;;;;;;5030915;28;20171;-77
2021/08/25 08:16:09;;;;;;;1.00;0.90;;;23.80;99.90;;;;;;5017156;28;20531;-77
2021/08/25 08:18:41;;;;;;;3.33;1.20;;;23.70;99.90;;;;;;5014779;28;20196;-77
2021/08/25 08:21:07;;;;;;;1.97;1.87;;;23.60;99.90;;;;;;5034304;28;20409;-78
2021/08/25 08:23:33;;;;;;;1.23;1.13;;;23.60;99.90;;;;;;5034904;28;20924;-75
2021/08/25 08:25:59;;;;;;;1.00;0.77;;;23.80;99.90;;;;;;5020066;28;20172;-78
2021/08/25 08:28:25;;;;;;;1.30;0.90;;;24.10;99.90;;;;;;5014890;28;20478;-75
2021/08/25 08:30:50;;;;;;;1.13;1.03;;;24.50;99.90;;;;;;5019128;28;20176;-76
2021/08/25 08:33:16;;;;;;;1.53;0.70;;;24.60;99.90;;;;;;5026698;28;20246;-76
2021/08/25 08:35:42;;;;;;;0.93;0.83;;;24.90;99.90;;;;;;5034220;28;20168;-76
2021/08/25 08:38:07;;;;;;;0.80;0.60;;;25.40;99.90;;;;;;5029541;28;20227;-78
2021/08/25 08:40:35;;;;;;;0.90;0.80;;;26.00;99.90;;;;;;5013603;28;20645;-76
2021/08/25 08:43:04;;;;;;;2.67;1.03;;;26.70;99.90;;;;;;5013762;28;20164;-76
2021/08/25 08:45:33;;;;;;;2.07;1.87;;;27.20;98.90;;;;;;5015989;28;20406;-76
2021/08/25 08:48:00;;;;;;;1.40;0.93;;;27.50;97.40;;;;;;5021523;28;20446;-73
2021/08/25 08:50:26;;;;;;;1.00;0.70;;;27.60;92.90;;;;;;5034502;28;20927;-74
2021/08/25 08:52:51;;;;;;;1.53;0.80;;;27.90;92.30;;;;;;5022654;28;20508;-74
2021/08/25 08:55:17;;;;;;;0.90;0.80;;;28.20;90.00;;;;;;5033089;28;20187;-75
2021/08/25 08:57:42;;;;;;;0.90;0.70;;;28.80;87.10;;;;;;5034053;28;20207;-75
2021/08/25 09:00:09;;;;;;;0.80;0.70;;;29.20;88.10;;;;;;5034195;28;20168;-76
2021/08/25 09:02:43;;;;;;;1.27;1.17;;;29.40;85.00;;;;;;5033199;28;20175;-75
2021/08/25 09:05:31;;;;;;;1.20;1.10;;;29.50;78.70;;;;;;5014244;28;20509;-75
2021/08/25 09:08:00;;;;;;;0.93;0.80;;;29.70;79.30;;;;;;5015595;28;20462;-77
2021/08/25 09:10:38;;;;;;;1.27;0.80;;;30.10;79.20;;;;;;5015472;28;20444;-78
2021/08/25 09:13:06;;;;;;;1.37;1.20;;;30.40;79.10;;;;;;5019801;28;20424;-77
2021/08/25 09:15:35;;;;;;;1.67;1.13;;;30.60;77.10;;;;;;5018338;28;20426;-76
2021/08/25 09:18:14;;;;;;;1.10;0.93;;;30.90;68.80;;;;;;5029474;28;20469;-75
2021/08/25 09:20:46;;;;;;;1.40;0.90;;;30.60;63.70;;;;;;5028420;28;20614;-75
2021/08/25 09:23:19;;;;;;;0.90;0.70;;;30.70;69.00;;;;;;5022622;28;20421;-75
2021/08/25 09:25:46;;;;;;;2.90;1.03;;;30.90;68.80;;;;;;5020748;28;20423;-75
2021/08/25 09:28:17;;;;;;;1.00;0.90;;;31.20;68.00;;;;;;5013444;28;20442;-75
2021/08/25 09:30:51;;;;;;;1.37;1.27;;;31.50;65.00;;;;;;5014696;28;20403;-77
2021/08/25 09:33:18;;;;;;;2.40;0.90;;;31.80;64.70;;;;;;5017269;28;20514;-75
2021/08/25 09:35:44;;;;;;;1.00;0.80;;;31.90;62.30;;;;;;5025515;28;20480;-76
2021/08/25 09:38:19;;;;;;;1.27;0.90;;;31.90;60.60;;;;;;5033506;28;20457;-77
2021/08/25 09:40:52;;;;;;;1.00;0.90;;;32.10;60.30;;;;;;5032019;28;20160;-78
2021/08/25 09:43:38;;;;;;;1.23;1.10;;;32.10;57.60;;;;;;5032967;28;20450;-77
2021/08/25 09:46:10;;;;;;;1.50;0.77;;;32.30;59.50;;;;;;5027293;28;20415;-77
2021/08/25 09:48:39;;;;;;;1.87;0.80;;;32.40;58.30;;;;;;5032597;28;20454;-77
2021/08/25 09:51:05;;;;;;;1.00;0.90;;;32.30;55.10;;;;;;5026863;28;20418;-77
2021/08/25 09:53:31;;;;;;;1.20;1.00;;;32.30;55.10;;;;;;5030797;28;20422;-77
2021/08/25 09:55:57;;;;;;;1.63;1.53;;;32.10;55.60;;;;;;5030799;28;20500;-77
2021/08/25 09:58:24;;;;;;;1.67;0.83;;;32.40;55.30;;;;;;5020872;28;20855;-77
2021/08/25 10:00:54;;;;;;;1.00;0.80;;;32.60;55.70;;;;;;5032321;28;20168;-76
2021/08/25 10:03:21;;;;;;;0.90;0.80;;;32.80;56.40;;;;;;5032968;28;20433;-76
2021/08/25 10:05:48;;;;;;;2.80;2.60;;;32.90;55.00;;;;;;5049532;28;20834;-74
2021/08/25 10:08:15;;;;;;;1.10;1.00;;;33.10;56.00;;;;;;5041658;28;20484;-73
2021/08/25 10:10:42;;;;;;;0.90;0.80;;;33.30;53.20;;;;;;5018960;28;20445;-73
2021/08/25 10:13:08;;;;;;;1.67;1.57;;;33.30;53.20;;;;;;5032935;28;20421;-74
2021/08/25 10:15:34;;;;;;;1.40;1.20;;;33.30;52.10;;;;;;5029907;28;20501;-73
2021/08/25 10:18:19;;;;;;;1.30;1.13;;;33.40;53.40;;;;;;5032382;28;20195;-74
2021/08/25 10:20:45;;;;;;;1.00;0.87;;;33.40;51.20;;;;;;5031481;28;20429;-74
2021/08/25 10:23:11;;;;;;;3.03;1.27;;;33.50;52.60;;;;;;5025129;28;21133;-74
2021/08/25 10:26:09;;;;;;;1.60;1.13;;;33.50;51.30;;;;;;5015899;28;20180;-76
2021/08/25 10:29:04;;;;;;;1.53;1.37;;;33.70;51.10;;;;;;5014843;28;20246;-77
2021/08/25 10:31:48;;;;;;;1.00;0.90;;;33.80;51.60;;;;;;5022065;28;20438;-75
2021/08/25 10:34:18;;;;;;;1.10;0.90;;;33.70;51.10;;;;;;5012853;28;20422;-75
2021/08/25 10:36:44;;;;;;;4.87;1.20;;;33.90;51.60;;;;;;5011576;28;21026;-76
2021/08/25 10:39:36;;;;;;;5.57;2.90;;;33.50;47.70;;;;;;5011953;28;20426;-75
2021/08/25 10:42:02;;;;;;;1.27;0.80;;;33.70;49.80;;;;;;5015949;28;20179;-76
2021/08/25 10:44:40;;;;;;;1.00;0.80;;;33.80;50.10;;;;;;5012551;28;20419;-76
2021/08/25 10:47:17;;;;;;;1.20;0.90;;;33.90;51.00;;;;;;5011811;28;20779;-75
2021/08/25 10:49:48;;;;;;;1.00;0.87;;;33.90;48.90;;;;;;5012654;28;20399;-77
2021/08/25 10:52:14;;;;;;;2.53;1.53;;;33.90;49.20;;;;;;5011263;28;20611;-76
2021/08/25 10:54:47;;;;;;;1.40;1.27;;;33.90;49.50;;;;;;5012937;28;20510;-76
2021/08/25 10:57:15;;;;;;;0.90;0.80;;;34.10;50.40;;;;;;5019578;28;20207;-75
2021/08/25 10:59:41;;;;;;;1.13;0.90;;;34.20;48.40;;;;;;5031706;28;20426;-76
2021/08/25 11:02:07;;;;;;;2.20;2.10;;;34.20;50.70;;;;;;5017188;28;20435;-75
2021/08/25 11:04:34;;;;;;;1.20;0.90;;;34.30;48.00;;;;;;5012324;28;20791;-76
2021/08/25 11:07:02;;;;;;;1.53;1.43;;;34.20;48.70;;;;;;5011932;28;20633;-76
2021/08/25 11:09:29;;;;;;;1.20;1.10;;;34.30;50.00;;;;;;5016760;28;20426;-75
2021/08/25 11:11:56;;;;;;;1.10;1.00;;;34.50;50.70;;;;;;5012312;28;20399;-76
2021/08/25 11:14:35;;;;;;;4.50;1.30;;;34.60;48.70;;;;;;5012192;28;20419;-75
2021/08/25 11:17:05;;;;;;;2.77;1.40;;;34.80;49.30;;;;;;5011516;28;20480;-76
2021/08/25 11:19:37;;;;;;;1.70;1.40;;;34.60;46.20;;;;;;5015334;28;20434;-75
2021/08/25 11:22:04;;;;;;;1.20;1.10;;;34.60;47.50;;;;;;5020759;28;20454;-76
2021/08/25 11:24:57;;;;;;;1.47;1.00;;;34.60;48.10;;;;;;5012124;28;20431;-76
2021/08/25 11:27:31;;;;;;;1.00;0.90;;;34.50;47.20;;;;;;5018507;28;20448;-76
2021/08/25 11:30:26;;;;;;;1.10;0.73;;;34.40;48.50;;;;;;5027222;28;20458;-76
2021/08/25 11:33:04;;;;;;;1.20;0.90;;;34.50;49.10;;;;;;5011953;28;20426;-76
2021/08/25 11:35:34;;;;;;;1.00;0.90;;;34.60;46.50;;;;;;5011796;28;20561;-76
2021/08/25 11:38:15;;;;;;;1.07;0.80;;;34.30;46.00;;;;;;5011830;28;20455;-76
2021/08/25 11:40:45;;;;;;;2.40;0.97;;;34.40;46.90;;;;;;5020503;28;20557;-75
2021/08/25 11:43:14;;;;;;;0.90;0.80;;;34.40;46.80;;;;;;5025280;28;20980;-73
2021/08/25 11:45:41;;;;;;;1.10;0.93;;;34.40;49.60;;;;;;5010115;28;20959;-76
2021/08/25 11:48:08;;;;;;;1.10;1.00;;;34.30;47.20;;;;;;5011897;28;20446;-76
2021/08/25 11:50:37;;;;;;;1.00;0.87;;;34.40;46.40;;;;;;5013179;28;20410;-76
2021/08/25 11:53:10;;;;;;;1.10;1.00;;;34.60;48.30;;;;;;5020095;28;20438;-76
2021/08/25 11:55:36;;;;;;;1.30;1.07;;;34.60;46.30;;;;;;5033217;28;20422;-75
2021/08/25 11:58:02;;;;;;;1.23;1.10;;;34.70;47.70;;;;;;5028629;28;20469;-76
2021/08/25 12:00:39;;;;;;;0.90;0.80;;;34.90;47.80;;;;;;5018203;28;20423;-76
2021/08/25 12:03:05;;;;;;;1.17;1.00;;;34.90;47.50;;;;;;5044927;28;20179;-76
2021/08/25 12:05:34;;;;;;;1.60;1.20;;;34.50;46.60;;;;;;5021943;28;20422;-75
2021/08/25 12:08:06;;;;;;;3.20;1.20;;;34.80;46.80;;;;;;5024477;28;20530;-75
2021/08/25 12:10:32;;;;;;;1.47;1.20;;;35.00;45.50;;;;;;5028390;28;20414;-76
2021/08/25 12:12:58;;;;;;;2.97;2.37;;;34.80;46.30;;;;;;5029923;28;20526;-76
2021/08/25 12:15:43;;;;;;;2.93;1.87;;;34.80;45.60;;;;;;5041751;28;20506;-76
2021/08/25 12:18:09;;;;;;;1.30;1.17;;;34.70;44.90;;;;;;5018556;28;20211;-76
2021/08/25 12:20:35;;;;;;;1.77;0.90;;;34.40;45.90;;;;;;5015192;28;20426;-76
2021/08/25 12:23:05;;;;;;;3.97;1.13;;;34.40;47.20;;;;;;5016190;28;20262;-76
2021/08/25 12:25:43;;;;;;;1.47;1.37;;;34.20;46.80;;;;;;5017645;28;20448;-76
2021/08/25 12:28:16;;;;;;;2.43;1.30;;;34.30;47.30;;;;;;5033305;28;20549;-76
2021/08/25 12:30:43;;;;;;;1.03;0.93;;;34.20;45.60;;;;;;5022910;28;20426;-76
2021/08/25 12:33:10;;;;;;;1.43;1.30;;;34.40;47.20;;;;;;5033466;28;20457;-76
2021/08/25 12:35:39;;;;;;;1.73;1.30;;;34.60;46.30;;;;;;5032711;28;20441;-77
2021/08/25 12:38:06;;;;;;;1.77;1.67;;;34.60;46.30;;;;;;5033564;28;20458;-76
2021/08/25 12:40:33;;;;;;;1.10;1.00;;;34.40;44.70;;;;;;5018701;28;20500;-76
2021/08/25 12:43:00;;;;;;;1.30;1.20;;;34.10;46.90;;;;;;5026942;28;20781;-76
2021/08/25 12:45:26;;;;;;;2.50;1.10;;;34.20;46.80;;;;;;5034514;28;20460;-77
2021/08/25 12:47:54;;;;;;;4.50;2.03;;;34.20;46.60;;;;;;5034525;28;20458;-76
2021/08/25 12:50:22;;;;;;;2.83;1.47;;;34.20;46.70;;;;;;5034778;28;20485;-76